Time;durP1;ratioP1;P1;durP2;ratioP2;P2;SDS_P1;SDS_P2;PMS_P1;PMS_P2;Temp;Humidity;BMP_temperature;BMP_pressure;BME280_temperature;BME280_humidity;BME280_pressure;Samples;Min_cycle;Max_cycle;Signal;HPM_P1;HPM_P2
2023/05/11 00:01:17;;;;;;;6.97;3.80;;;7.70;94.80;;;;;;4977066;28;20106;-63
2023/05/11 00:03:44;;;;;;;3.45;3.13;;;7.70;94.80;;;;;;4980254;28;20450;-67
2023/05/11 00:06:11;;;;;;;9.80;4.05;;;7.80;94.60;;;;;;4976012;28;20069;-64
2023/05/11 00:08:38;;;;;;;5.65;4.43;;;7.80;94.80;;;;;;4977861;28;20056;-72
2023/05/11 00:11:08;;;;;;;5.40;4.35;;;7.80;94.90;;;;;;4977442;28;20060;-66
2023/05/11 00:13:35;;;;;;;5.00;4.22;;;7.70;94.90;;;;;;4979470;28;20065;-65
2023/05/11 00:16:02;;;;;;;4.53;3.83;;;7.70;95.00;;;;;;4975046;28;20523;-62
2023/05/11 00:18:29;;;;;;;5.93;5.43;;;7.70;95.10;;;;;;4976516;28;20072;-66
2023/05/11 00:20:56;;;;;;;8.10;4.72;;;7.70;95.10;;;;;;4971213;28;20058;-65
2023/05/11 00:23:23;;;;;;;4.90;3.25;;;7.70;95.10;;;;;;4972141;28;20058;-63
2023/05/11 00:25:50;;;;;;;5.22;4.57;;;7.70;95.20;;;;;;4968364;28;20065;-63
2023/05/11 00:28:17;;;;;;;7.00;4.18;;;7.70;95.10;;;;;;4979690;28;20077;-76
2023/05/11 00:30:44;;;;;;;6.95;4.85;;;7.70;95.10;;;;;;4982908;28;20062;-61
2023/05/11 00:33:11;;;;;;;6.10;4.78;;;7.70;95.00;;;;;;4978314;28;20094;-66
2023/05/11 00:35:38;;;;;;;5.85;4.00;;;7.70;95.10;;;;;;4982461;28;20459;-67
2023/05/11 00:38:05;;;;;;;9.10;4.70;;;7.70;95.20;;;;;;4981134;28;20074;-64
2023/05/11 00:40:32;;;;;;;5.22;4.45;;;7.70;95.10;;;;;;4979426;28;20050;-73
2023/05/11 00:42:59;;;;;;;4.38;3.97;;;7.70;95.20;;;;;;4981809;28;20046;-63
2023/05/11 00:45:27;;;;;;;6.68;4.22;;;7.70;95.30;;;;;;4983078;28;20093;-63
2023/05/11 00:47:54;;;;;;;7.80;4.10;;;7.70;95.10;;;;;;4977470;28;20072;-61
2023/05/11 00:50:21;;;;;;;4.38;3.97;;;7.70;95.20;;;;;;4976140;28;20105;-63
2023/05/11 00:52:47;;;;;;;8.43;4.25;;;7.70;95.30;;;;;;4982215;28;20431;-62
2023/05/11 00:55:18;;;;;;;7.43;3.92;;;7.70;95.30;;;;;;4975319;28;20053;-62
2023/05/11 00:57:45;;;;;;;6.65;4.65;;;7.70;95.40;;;;;;4971926;28;20070;-63
2023/05/11 01:00:12;;;;;;;4.72;3.83;;;7.70;95.40;;;;;;4977118;28;20050;-65
2023/05/11 01:02:40;;;;;;;7.38;3.97;;;7.70;95.40;;;;;;4978571;28;20074;-65
2023/05/11 01:05:07;;;;;;;4.45;3.90;;;7.70;95.40;;;;;;4976724;28;20050;-65
2023/05/11 01:07:58;;;;;;;5.88;3.75;;;7.70;95.50;;;;;;4980468;28;20125;-62
2023/05/11 01:10:38;;;;;;;7.82;3.38;;;7.70;95.50;;;;;;4978322;28;20057;-62
2023/05/11 01:13:23;;;;;;;8.95;3.97;;;7.70;95.50;;;;;;4979259;28;20046;-65
2023/05/11 01:15:57;;;;;;;4.75;3.65;;;7.70;95.50;;;;;;4987726;28;20058;-62
2023/05/11 01:18:39;;;;;;;8.93;3.95;;;7.80;95.50;;;;;;4999192;28;20476;-65
2023/05/11 01:21:14;;;;;;;10.25;4.18;;;7.70;95.50;;;;;;4979339;28;20370;-66
2023/05/11 01:23:58;;;;;;;8.48;4.70;;;7.70;95.60;;;;;;4994496;28;20057;-73
2023/05/11 01:26:38;;;;;;;5.63;4.28;;;7.60;95.60;;;;;;4991430;28;20049;-64
2023/05/11 01:29:33;;;;;;;7.53;4.40;;;7.60;95.80;;;;;;4977088;28;20724;-61
2023/05/11 01:32:07;;;;;;;4.47;3.88;;;7.50;95.90;;;;;;4980969;28;20085;-60
2023/05/11 01:34:38;;;;;;;4.72;4.25;;;7.50;96.10;;;;;;4974271;28;20512;-71
2023/05/11 01:37:25;;;;;;;4.55;4.00;;;7.50;96.20;;;;;;4976557;28;20456;-63
2023/05/11 01:39:58;;;;;;;4.65;4.03;;;7.50;96.30;;;;;;4978115;28;20161;-65
2023/05/11 01:42:31;;;;;;;4.30;3.92;;;7.50;96.30;;;;;;4978653;28;20052;-70
2023/05/11 01:44:59;;;;;;;5.97;4.43;;;7.40;96.40;;;;;;4979780;28;20090;-62
2023/05/11 01:47:29;;;;;;;8.00;4.60;;;7.40;96.50;;;;;;4981347;28;20133;-64
2023/05/11 01:49:56;;;;;;;11.27;5.38;;;7.40;96.50;;;;;;4977940;28;20057;-66
2023/05/11 01:52:26;;;;;;;4.15;3.72;;;7.40;96.70;;;;;;4977366;28;20537;-68
2023/05/11 01:54:55;;;;;;;9.75;4.95;;;7.40;96.80;;;;;;4990123;28;20908;-62
2023/05/11 01:57:23;;;;;;;5.20;4.53;;;7.30;96.80;;;;;;4977388;28;20497;-62
2023/05/11 01:59:52;;;;;;;10.93;4.80;;;7.30;97.00;;;;;;4994866;28;20046;-61
2023/05/11 02:02:20;;;;;;;5.45;4.22;;;7.30;97.10;;;;;;4981259;28;20050;-62
2023/05/11 02:04:48;;;;;;;7.03;4.63;;;7.20;97.30;;;;;;4975368;28;20054;-68
2023/05/11 02:07:17;;;;;;;4.20;3.90;;;7.20;97.30;;;;;;4993904;28;20062;-62
2023/05/11 02:09:46;;;;;;;5.30;4.30;;;7.20;97.80;;;;;;4982681;28;20070;-73
2023/05/11 02:12:16;;;;;;;7.95;4.50;;;7.10;97.60;;;;;;4979088;28;20503;-61
2023/05/11 02:14:45;;;;;;;6.30;5.75;;;7.10;97.90;;;;;;4990471;28;20046;-63
2023/05/11 02:17:15;;;;;;;7.82;4.47;;;7.10;98.00;;;;;;4978830;28;20599;-68
2023/05/11 02:19:43;;;;;;;6.18;5.25;;;7.10;98.20;;;;;;4978457;28;20460;-66
2023/05/11 02:22:12;;;;;;;7.22;5.55;;;7.10;98.30;;;;;;4971915;28;20051;-65
2023/05/11 02:24:40;;;;;;;5.93;5.40;;;7.00;98.40;;;;;;4973680;28;20157;-70
2023/05/11 02:27:07;;;;;;;5.40;4.88;;;7.00;98.50;;;;;;4978679;28;20054;-65
2023/05/11 02:29:34;;;;;;;7.18;4.88;;;7.00;98.80;;;;;;4976025;28;20137;-64
2023/05/11 02:32:11;;;;;;;5.40;4.53;;;7.00;98.80;;;;;;4974826;28;20093;-65
2023/05/11 02:34:41;;;;;;;6.70;4.93;;;7.00;98.60;;;;;;4988703;28;20062;-62
2023/05/11 02:37:13;;;;;;;5.90;4.30;;;7.00;98.90;;;;;;4974850;28;20114;-67
2023/05/11 02:39:47;;;;;;;7.00;4.70;;;7.00;99.20;;;;;;4974291;28;20500;-68
2023/05/11 02:42:19;;;;;;;5.43;4.90;;;7.00;99.20;;;;;;4982480;28;20082;-63
2023/05/11 02:44:55;;;;;;;7.55;4.57;;;6.90;99.00;;;;;;4977379;28;20046;-61
2023/05/11 02:47:31;;;;;;;5.57;4.60;;;7.00;99.40;;;;;;4978591;28;20453;-62
2023/05/11 02:50:02;;;;;;;4.72;4.22;;;6.90;99.50;;;;;;4972712;28;20105;-63
2023/05/11 02:52:38;;;;;;;5.45;4.70;;;6.90;99.80;;;;;;4979643;28;20382;-64
2023/05/11 02:55:06;;;;;;;5.93;3.92;;;6.90;99.90;;;;;;4970922;28;20188;-62
2023/05/11 02:57:33;;;;;;;7.55;4.38;;;6.90;99.90;;;;;;4974283;28;20070;-65
2023/05/11 03:00:04;;;;;;;;;;;6.90;99.90;;;;;;4981782;28;20501;-64
2023/05/11 03:02:31;;;;;;;9.93;4.90;;;6.90;99.90;;;;;;4973577;28;20225;-65
2023/05/11 03:04:58;;;;;;;7.07;4.10;;;7.00;99.90;;;;;;4986416;28;20047;-61
2023/05/11 03:07:25;;;;;;;5.63;4.63;;;7.00;99.90;;;;;;4974127;28;20054;-64
2023/05/11 03:09:52;;;;;;;5.40;4.05;;;7.00;99.90;;;;;;4975808;28;20146;-62
2023/05/11 03:12:20;;;;;;;7.32;4.30;;;7.00;99.90;;;;;;4988401;28;20596;-67
2023/05/11 03:14:48;;;;;;;7.30;4.35;;;7.00;99.90;;;;;;4977249;28;20058;-68
2023/05/11 03:17:17;;;;;;;5.03;4.03;;;7.10;99.90;;;;;;4996186;28;20050;-64
2023/05/11 03:19:44;;;;;;;8.80;4.87;;;7.10;99.90;;;;;;4978329;28;20141;-68
2023/05/11 03:22:15;;;;;;;6.47;4.00;;;7.10;99.90;;;;;;4975326;28;20320;-71
2023/05/11 03:24:43;;;;;;;10.75;6.72;;;7.20;99.90;;;;;;4972894;28;20082;-65
2023/05/11 03:27:11;;;;;;;7.97;5.03;;;7.20;99.90;;;;;;4977948;28;20161;-62
2023/05/11 03:29:42;;;;;;;7.07;4.25;;;7.20;99.90;;;;;;4988616;28;20153;-73
2023/05/11 03:32:10;;;;;;;12.45;4.18;;;7.20;99.90;;;;;;4976818;28;20413;-61
2023/05/11 03:34:38;;;;;;;7.53;3.88;;;7.30;99.90;;;;;;4980746;28;20050;-62
2023/05/11 03:37:05;;;;;;;7.70;4.38;;;7.30;99.90;;;;;;4979150;28;20050;-63
2023/05/11 03:39:34;;;;;;;6.70;4.65;;;7.40;99.90;;;;;;4978661;28;20077;-65
2023/05/11 03:42:02;;;;;;;8.10;4.32;;;7.40;99.90;;;;;;4990764;28;20057;-61
2023/05/11 03:44:31;;;;;;;4.60;4.18;;;7.50;99.90;;;;;;4978029;28;20442;-62
2023/05/11 03:47:00;;;;;;;5.80;3.58;;;7.50;99.90;;;;;;4979238;28;20129;-65
2023/05/11 03:49:28;;;;;;;7.65;4.43;;;7.60;99.90;;;;;;4980552;28;20062;-61
2023/05/11 03:51:56;;;;;;;5.13;4.65;;;7.70;99.90;;;;;;4983082;28;20078;-62
2023/05/11 03:54:25;;;;;;;17.07;6.03;;;7.70;99.90;;;;;;4979879;28;20065;-62
2023/05/11 03:56:52;;;;;;;6.35;3.80;;;7.80;99.90;;;;;;4976321;28;20125;-62
2023/05/11 03:59:19;;;;;;;7.00;5.03;;;7.80;99.90;;;;;;4976795;28;20058;-65
2023/05/11 04:01:46;;;;;;;10.68;4.18;;;7.90;99.90;;;;;;4969425;28;20481;-63
2023/05/11 04:04:13;;;;;;;11.15;5.30;;;7.90;99.90;;;;;;4993098;28;20113;-66
2023/05/11 04:06:40;;;;;;;9.02;4.60;;;8.00;99.90;;;;;;4980840;28;20061;-69
2023/05/11 04:09:16;;;;;;;4.93;4.43;;;8.10;99.90;;;;;;4984949;28;20141;-63
2023/05/11 04:11:43;;;;;;;6.45;4.70;;;8.20;99.90;;;;;;4982248;28;20056;-67
2023/05/11 04:14:10;;;;;;;9.98;4.55;;;8.20;99.90;;;;;;4981599;28;20054;-63
2023/05/11 04:16:37;;;;;;;21.48;4.85;;;8.30;99.90;;;;;;4981725;28;20054;-69
2023/05/11 04:19:05;;;;;;;7.95;4.45;;;8.40;99.90;;;;;;4980822;28;20054;-68
2023/05/11 04:21:34;;;;;;;10.32;5.20;;;8.40;99.90;;;;;;4985352;28;20050;-63
2023/05/11 04:24:02;;;;;;;10.60;4.35;;;8.60;99.90;;;;;;4983505;28;20125;-67
2023/05/11 04:26:29;;;;;;;8.63;4.78;;;8.70;99.90;;;;;;4977308;28;20154;-68
2023/05/11 04:28:56;;;;;;;5.70;4.10;;;8.80;99.90;;;;;;4975057;28;20096;-62
2023/05/11 04:31:23;;;;;;;5.95;4.90;;;8.90;99.90;;;;;;4979165;28;20502;-62
2023/05/11 04:33:50;;;;;;;4.60;3.92;;;9.00;99.90;;;;;;4978015;28;20058;-68
2023/05/11 04:36:17;;;;;;;8.90;4.55;;;9.00;99.90;;;;;;4985720;28;20105;-62
2023/05/11 04:38:44;;;;;;;6.75;3.95;;;9.10;99.90;;;;;;4976655;28;20053;-68
2023/05/11 04:41:12;;;;;;;4.82;4.03;;;9.20;99.90;;;;;;4983027;28;20055;-70
2023/05/11 04:43:39;;;;;;;6.75;4.55;;;9.20;99.90;;;;;;4991269;28;20077;-64
2023/05/11 04:46:08;;;;;;;6.63;5.07;;;9.40;99.90;;;;;;4981866;28;20058;-59
2023/05/11 04:48:35;;;;;;;8.15;3.45;;;9.60;99.90;;;;;;4982123;28;20182;-63
2023/05/11 04:51:05;;;;;;;8.55;4.85;;;9.70;99.90;;;;;;4984292;28;20408;-60
2023/05/11 04:53:37;;;;;;;5.53;5.03;;;9.80;99.90;;;;;;4977092;28;20082;-63
2023/05/11 04:56:04;;;;;;;6.38;3.80;;;9.90;99.90;;;;;;4990623;28;20521;-62
2023/05/11 04:58:31;;;;;;;5.13;3.63;;;9.90;99.90;;;;;;4993522;28;20083;-63
2023/05/11 05:00:58;;;;;;;4.43;3.75;;;9.90;99.90;;;;;;4977325;28;20580;-62
2023/05/11 05:03:25;;;;;;;6.50;3.97;;;10.00;99.90;;;;;;4991822;28;20097;-65
2023/05/11 05:05:52;;;;;;;6.50;4.65;;;10.10;99.90;;;;;;4989479;28;20069;-60
2023/05/11 05:08:20;;;;;;;10.90;3.85;;;10.20;99.90;;;;;;4977956;28;20590;-63
2023/05/11 05:10:47;;;;;;;6.53;4.63;;;10.20;99.50;;;;;;4975456;28;20073;-62
2023/05/11 05:13:15;;;;;;;7.07;3.78;;;10.40;99.20;;;;;;4990944;28;20068;-63
2023/05/11 05:15:42;;;;;;;10.25;3.70;;;10.40;99.20;;;;;;4980325;28;20053;-65
2023/05/11 05:18:09;;;;;;;8.23;4.05;;;10.50;99.30;;;;;;4980477;28;20062;-63
2023/05/11 05:20:38;;;;;;;8.70;4.50;;;10.70;99.20;;;;;;4976799;28;20070;-65
2023/05/11 05:23:05;;;;;;;5.40;4.35;;;10.80;98.60;;;;;;4976633;28;20046;-62
2023/05/11 05:25:32;;;;;;;8.07;4.70;;;10.90;98.80;;;;;;4973123;28;20058;-60
2023/05/11 05:27:59;;;;;;;4.30;3.58;;;11.00;98.60;;;;;;4982103;28;20086;-61
2023/05/11 05:30:26;;;;;;;15.80;3.55;;;11.10;98.20;;;;;;4973149;28;20061;-62
2023/05/11 05:32:54;;;;;;;4.60;3.15;;;11.10;97.60;;;;;;4979053;28;20062;-65
2023/05/11 05:35:21;;;;;;;8.70;3.80;;;11.30;97.50;;;;;;4992887;28;20058;-67
2023/05/11 05:37:48;;;;;;;6.88;3.83;;;11.40;97.50;;;;;;4993392;28;20405;-62
2023/05/11 05:40:16;;;;;;;10.90;5.43;;;11.60;97.80;;;;;;4976703;28;20150;-68
2023/05/11 05:42:46;;;;;;;;;;;11.70;97.00;;;;;;4976988;28;20047;-64
2023/05/11 05:45:18;;;;;;;7.18;3.63;;;11.80;97.10;;;;;;4983965;28;20265;-70
2023/05/11 05:47:45;;;;;;;4.68;3.55;;;12.00;96.90;;;;;;4984666;28;20089;-65
2023/05/11 05:50:13;;;;;;;6.65;3.88;;;12.00;96.80;;;;;;4993926;28;20493;-62
2023/05/11 05:52:40;;;;;;;4.32;3.88;;;12.10;97.20;;;;;;4991345;28;20172;-67
2023/05/11 05:55:08;;;;;;;6.32;3.42;;;12.10;96.80;;;;;;4980812;28;20113;-63
2023/05/11 05:57:35;;;;;;;6.70;3.50;;;12.20;96.90;;;;;;4979330;28;20407;-60
2023/05/11 06:00:03;;;;;;;5.07;3.75;;;12.20;96.80;;;;;;4978706;28;20042;-65
2023/05/11 06:02:38;;;;;;;6.97;3.78;;;12.40;96.60;;;;;;4980641;28;20165;-62
2023/05/11 06:05:07;;;;;;;5.75;2.70;;;12.60;96.00;;;;;;4998382;28;20097;-64
2023/05/11 06:07:34;;;;;;;4.18;3.45;;;12.80;95.40;;;;;;4979799;28;20608;-64
2023/05/11 06:10:01;;;;;;;4.18;2.47;;;12.90;94.70;;;;;;4998877;28;20082;-63
2023/05/11 06:12:30;;;;;;;7.50;4.00;;;13.00;94.50;;;;;;4984001;28;20090;-61
2023/05/11 06:14:57;;;;;;;4.25;3.40;;;13.20;94.40;;;;;;4963940;28;20153;-64
2023/05/11 06:17:24;;;;;;;13.10;3.50;;;13.20;94.40;;;;;;4980170;28;20053;-67
2023/05/11 06:19:51;;;;;;;4.40;2.85;;;13.40;94.00;;;;;;4971559;28;20417;-60
2023/05/11 06:22:22;;;;;;;6.57;3.60;;;13.50;94.10;;;;;;4990796;28;20153;-64
2023/05/11 06:24:49;;;;;;;6.13;3.60;;;13.60;93.40;;;;;;4981828;28;20050;-61
2023/05/11 06:27:17;;;;;;;7.60;3.10;;;13.70;93.40;;;;;;4977275;28;20061;-69
2023/05/11 06:29:45;;;;;;;6.00;3.00;;;13.80;92.20;;;;;;4978431;28;20054;-65
2023/05/11 06:32:12;;;;;;;2.92;2.55;;;14.00;91.40;;;;;;4971162;28;20105;-63
2023/05/11 06:34:39;;;;;;;5.40;2.95;;;14.10;91.60;;;;;;4975849;28;20101;-72
2023/05/11 06:37:07;;;;;;;4.10;3.67;;;14.30;91.00;;;;;;4977177;28;20084;-66
2023/05/11 06:39:36;;;;;;;3.28;2.85;;;14.40;91.30;;;;;;4995257;28;20416;-60
2023/05/11 06:42:06;;;;;;;4.53;2.97;;;14.40;90.60;;;;;;4990376;28;20404;-68
2023/05/11 06:44:33;;;;;;;3.08;2.53;;;14.60;89.60;;;;;;4982557;28;20046;-60
2023/05/11 06:47:00;;;;;;;6.82;3.25;;;14.60;90.00;;;;;;4970016;28;20152;-60
2023/05/11 06:49:27;;;;;;;4.50;2.60;;;14.80;89.80;;;;;;4982309;28;20141;-67
2023/05/11 06:51:54;;;;;;;3.38;2.80;;;14.90;88.90;;;;;;4978111;28;20089;-61
2023/05/11 06:54:21;;;;;;;2.53;2.33;;;15.00;89.70;;;;;;4983349;28;20420;-61
2023/05/11 06:56:48;;;;;;;5.78;3.15;;;15.10;87.70;;;;;;4978512;28;20547;-68
2023/05/11 06:59:15;;;;;;;4.82;2.47;;;15.20;87.50;;;;;;4979770;28;20284;-64
2023/05/11 07:01:42;;;;;;;4.40;2.72;;;15.30;87.50;;;;;;4974345;28;20054;-70
2023/05/11 07:04:09;;;;;;;2.85;2.25;;;15.40;87.50;;;;;;4979294;28;20483;-65
2023/05/11 07:06:36;;;;;;;4.78;3.03;;;15.60;87.30;;;;;;4976647;28;20057;-65
2023/05/11 07:09:03;;;;;;;4.45;2.28;;;15.70;85.40;;;;;;4964298;28;20488;-62
2023/05/11 07:11:31;;;;;;;6.65;2.90;;;15.80;84.80;;;;;;4976412;28;20081;-73
2023/05/11 07:13:58;;;;;;;4.35;2.47;;;15.90;84.10;;;;;;4981372;28;20137;-64
2023/05/11 07:16:24;;;;;;;4.25;2.22;;;16.00;84.10;;;;;;4981981;28;20145;-63
2023/05/11 07:18:51;;;;;;;5.40;2.30;;;16.10;81.70;;;;;;4980944;28;20065;-63
2023/05/11 07:21:20;;;;;;;3.00;2.63;;;16.20;83.00;;;;;;4976413;28;20058;-61
2023/05/11 07:23:47;;;;;;;3.25;2.42;;;16.30;82.10;;;;;;4973620;28;20100;-62
2023/05/11 07:26:14;;;;;;;2.80;2.20;;;16.30;82.90;;;;;;4974885;28;20403;-62
2023/05/11 07:28:41;;;;;;;3.33;2.90;;;16.50;80.40;;;;;;4979421;28;20081;-69
2023/05/11 07:31:08;;;;;;;4.10;2.20;;;16.50;79.90;;;;;;4977523;28;20689;-65
2023/05/11 07:33:37;;;;;;;5.78;2.90;;;16.60;79.30;;;;;;4983865;28;20100;-64
2023/05/11 07:36:05;;;;;;;3.40;2.20;;;16.70;77.70;;;;;;4978258;28;20077;-59
2023/05/11 07:38:32;;;;;;;3.53;2.58;;;16.70;77.20;;;;;;4974750;28;20070;-74
2023/05/11 07:40:59;;;;;;;4.05;2.25;;;16.80;75.90;;;;;;4973495;28;20054;-61
2023/05/11 07:43:26;;;;;;;2.20;2.00;;;16.80;76.00;;;;;;4975419;28;20145;-64
2023/05/11 07:45:53;;;;;;;2.33;1.83;;;17.00;77.00;;;;;;4976590;28;20062;-61
2023/05/11 07:48:20;;;;;;;4.18;3.30;;;17.10;76.30;;;;;;4976951;28;20116;-66
2023/05/11 07:50:48;;;;;;;7.55;2.72;;;17.20;76.00;;;;;;4975399;28;20464;-65
2023/05/11 07:53:15;;;;;;;6.63;2.38;;;17.30;73.40;;;;;;4976107;28;20137;-64
2023/05/11 07:55:42;;;;;;;5.28;3.03;;;17.30;73.20;;;;;;4979039;28;20054;-70
2023/05/11 07:58:09;;;;;;;3.15;2.40;;;17.40;73.50;;;;;;4977604;28;20073;-66
2023/05/11 08:00:36;;;;;;;8.70;2.72;;;17.50;72.50;;;;;;4973025;28;20050;-66
2023/05/11 08:03:03;;;;;;;7.05;2.90;;;17.50;71.90;;;;;;4971694;28;20093;-64
2023/05/11 08:05:32;;;;;;;2.95;2.33;;;17.70;71.70;;;;;;4976670;28;20054;-64
2023/05/11 08:07:59;;;;;;;4.20;2.35;;;17.80;72.20;;;;;;4975082;28;20576;-64
2023/05/11 08:10:25;;;;;;;2.85;2.55;;;17.90;70.70;;;;;;4976665;28;20042;-65
2023/05/11 08:12:52;;;;;;;5.70;2.25;;;17.90;70.20;;;;;;4971176;28;20073;-68
2023/05/11 08:15:19;;;;;;;3.63;2.35;;;17.90;68.20;;;;;;4980713;28;20082;-62
2023/05/11 08:17:47;;;;;;;3.30;2.45;;;18.00;68.90;;;;;;4975527;28;20049;-63
2023/05/11 08:20:14;;;;;;;3.53;2.58;;;18.00;69.50;;;;;;4971127;28;20477;-70
2023/05/11 08:22:40;;;;;;;2.72;2.53;;;18.00;69.20;;;;;;4974690;28;20050;-68
2023/05/11 08:25:07;;;;;;;2.63;2.40;;;18.10;68.20;;;;;;4971582;28;20039;-67
2023/05/11 08:27:34;;;;;;;3.72;1.95;;;18.20;66.90;;;;;;4964484;28;20157;-63
2023/05/11 08:30:02;;;;;;;5.72;3.15;;;18.20;68.80;;;;;;4979492;28;20544;-64
2023/05/11 08:32:29;;;;;;;3.55;2.20;;;18.30;68.70;;;;;;4973888;28;20051;-68
2023/05/11 08:34:56;;;;;;;4.07;2.50;;;18.40;67.50;;;;;;4978570;28;20141;-62
2023/05/11 08:37:23;;;;;;;6.00;2.53;;;18.50;68.00;;;;;;4979590;28;20416;-64
2023/05/11 08:39:50;;;;;;;3.00;2.38;;;18.60;68.20;;;;;;4974083;28;20046;-73
2023/05/11 08:42:18;;;;;;;2.63;2.42;;;18.70;67.50;;;;;;4971855;28;20051;-62
2023/05/11 08:44:48;;;;;;;4.72;2.85;;;18.80;66.70;;;;;;4975421;28;20047;-68
2023/05/11 08:47:15;;;;;;;3.65;2.40;;;18.80;66.40;;;;;;4978911;28;20054;-62
2023/05/11 08:49:44;;;;;;;6.43;2.83;;;18.90;67.90;;;;;;4977658;28;20452;-68
2023/05/11 08:52:15;;;;;;;7.97;2.20;;;18.90;66.50;;;;;;4984373;28;20137;-62
2023/05/11 08:54:41;;;;;;;2.85;2.53;;;19.00;65.90;;;;;;4981172;28;20141;-66
2023/05/11 08:57:09;;;;;;;4.03;2.80;;;18.90;65.50;;;;;;4975634;28;20145;-64
2023/05/11 08:59:37;;;;;;;5.82;2.65;;;18.90;66.60;;;;;;4982317;28;20642;-62
2023/05/11 09:02:05;;;;;;;3.55;2.28;;;19.00;66.90;;;;;;4978044;28;20069;-63
2023/05/11 09:04:33;;;;;;;7.00;2.80;;;19.10;66.10;;;;;;4979833;28;20057;-64
2023/05/11 09:07:00;;;;;;;4.07;2.45;;;19.10;65.70;;;;;;4979083;28;20058;-66
2023/05/11 09:09:27;;;;;;;3.05;2.78;;;19.10;65.10;;;;;;4982925;28;20090;-65
2023/05/11 09:11:54;;;;;;;3.00;2.30;;;19.20;65.00;;;;;;4975536;28;20547;-64
2023/05/11 09:14:21;;;;;;;4.72;2.05;;;19.20;64.90;;;;;;4981422;28;20057;-66
2023/05/11 09:16:53;;;;;;;6.03;2.78;;;19.20;64.80;;;;;;4977065;28;20053;-62
2023/05/11 09:19:20;;;;;;;7.53;2.60;;;19.30;63.10;;;;;;4981865;28;20054;-66
2023/05/11 09:21:47;;;;;;;3.90;2.78;;;19.30;64.50;;;;;;4974832;28;20046;-67
2023/05/11 09:24:14;;;;;;;3.00;2.72;;;19.30;64.00;;;;;;4975531;28;20135;-65
2023/05/11 09:26:41;;;;;;;3.22;2.08;;;19.40;64.10;;;;;;4977231;28;20424;-61
2023/05/11 09:29:08;;;;;;;5.75;2.25;;;19.40;63.70;;;;;;4977828;28;20078;-62
2023/05/11 09:31:46;;;;;;;4.68;3.20;;;19.50;64.10;;;;;;4981414;28;20038;-67
2023/05/11 09:34:22;;;;;;;4.80;2.17;;;19.50;63.10;;;;;;4978733;28;20051;-65
2023/05/11 09:36:53;;;;;;;2.67;2.47;;;19.50;62.90;;;;;;4979623;28;20555;-64
2023/05/11 09:39:30;;;;;;;3.47;1.65;;;19.60;62.50;;;;;;4976431;28;20077;-62
2023/05/11 09:42:14;;;;;;;5.22;2.97;;;19.60;62.20;;;;;;4975157;28;20061;-63
2023/05/11 09:44:42;;;;;;;8.05;2.55;;;19.70;62.30;;;;;;4961982;28;20054;-62
2023/05/11 09:47:37;;;;;;;2.30;2.08;;;19.60;62.30;;;;;;4975855;28;20050;-62
2023/05/11 09:50:17;;;;;;;3.35;2.65;;;19.80;62.80;;;;;;4978273;28;20101;-62
2023/05/11 09:52:51;;;;;;;2.58;2.35;;;19.90;63.20;;;;;;4964129;28;20061;-66
2023/05/11 09:55:18;;;;;;;5.05;2.20;;;20.00;62.50;;;;;;4975447;28;20061;-61
2023/05/11 09:57:54;;;;;;;4.05;2.13;;;20.00;63.70;;;;;;4978843;28;20069;-69
2023/05/11 10:00:21;;;;;;;2.47;2.28;;;20.20;63.50;;;;;;4979254;28;20512;-64
2023/05/11 10:03:20;;;;;;;3.70;2.08;;;20.20;61.60;;;;;;4979048;28;20057;-62
2023/05/11 10:05:58;;;;;;;4.45;2.30;;;20.20;62.00;;;;;;4959328;28;20086;-62
2023/05/11 10:08:29;;;;;;;4.45;2.05;;;20.20;61.90;;;;;;4977704;28;20058;-64
2023/05/11 10:10:57;;;;;;;4.00;2.47;;;20.40;61.80;;;;;;4988672;28;20105;-63
2023/05/11 10:13:25;;;;;;;4.78;2.20;;;20.30;60.50;;;;;;4975143;28;20612;-74
2023/05/11 10:15:54;;;;;;;3.13;2.80;;;20.30;61.20;;;;;;4983497;28;20564;-63
2023/05/11 10:18:21;;;;;;;2.10;1.77;;;20.30;61.00;;;;;;4971226;28;20541;-69
2023/05/11 10:20:48;;;;;;;6.57;3.20;;;20.40;60.80;;;;;;4977057;28;20097;-64
2023/05/11 10:23:19;;;;;;;5.15;3.17;;;20.30;61.90;;;;;;4978433;28;20050;-62
2023/05/11 10:25:46;;;;;;;;;;;20.30;60.40;;;;;;4981463;28;20078;-65
2023/05/11 10:28:14;;;;;;;2.60;2.15;;;20.40;61.00;;;;;;4979849;28;19968;-64
2023/05/11 10:30:41;;;;;;;5.00;2.35;;;20.50;60.80;;;;;;4977419;28;20478;-65
2023/05/11 10:33:10;;;;;;;4.55;2.40;;;20.40;60.40;;;;;;4978059;28;20141;-69
2023/05/11 10:35:37;;;;;;;3.67;2.38;;;20.50;60.60;;;;;;4979796;28;20058;-65
2023/05/11 10:38:08;;;;;;;7.90;2.97;;;20.60;60.20;;;;;;4980118;28;20575;-62
2023/05/11 10:40:39;;;;;;;5.10;2.40;;;20.80;59.80;;;;;;4970805;28;20405;-67
2023/05/11 10:43:12;;;;;;;5.57;2.25;;;20.70;59.50;;;;;;4976194;28;20053;-62
2023/05/11 10:46:00;;;;;;;5.35;2.67;;;20.70;59.70;;;;;;4978747;28;20064;-67
2023/05/11 10:48:51;;;;;;;2.40;1.80;;;20.60;59.20;;;;;;4977393;28;20467;-62
2023/05/11 10:51:43;;;;;;;6.75;2.75;;;20.60;59.40;;;;;;4964734;28;20058;-64
2023/05/11 10:54:48;;;;;;;2.50;2.30;;;20.60;59.20;;;;;;4980532;28;20483;-67
2023/05/11 10:57:39;;;;;;;9.40;2.75;;;20.60;60.00;;;;;;4973961;28;20094;-66
2023/05/11 11:00:42;;;;;;;4.18;2.42;;;20.80;59.50;;;;;;4974204;28;20531;-61
2023/05/11 11:03:13;;;;;;;2.20;2.00;;;20.60;59.70;;;;;;4971182;28;20370;-64
2023/05/11 11:05:42;;;;;;;3.65;2.40;;;20.70;60.30;;;;;;4976293;28;20096;-63
2023/05/11 11:08:10;;;;;;;2.78;2.30;;;20.80;57.60;;;;;;4974741;28;20134;-64
2023/05/11 11:10:38;;;;;;;3.97;2.53;;;20.90;59.00;;;;;;4975130;28;20045;-62
2023/05/11 11:13:07;;;;;;;4.35;2.42;;;21.00;59.40;;;;;;4978443;28;20120;-63
2023/05/11 11:16:07;;;;;;;2.58;2.38;;;21.20;58.50;;;;;;4977134;28;20054;-64
2023/05/11 11:18:34;;;;;;;2.70;2.50;;;21.00;58.10;;;;;;4977492;28;20525;-74
2023/05/11 11:21:03;;;;;;;2.10;1.90;;;21.10;58.80;;;;;;4988646;28;20521;-63
2023/05/11 11:23:39;;;;;;;15.15;2.63;;;21.10;58.80;;;;;;4979588;28;20072;-65
2023/05/11 11:26:17;;;;;;;2.85;2.25;;;21.30;59.50;;;;;;4977495;28;20121;-68
2023/05/11 11:28:53;;;;;;;2.45;2.10;;;21.20;59.50;;;;;;4974600;28;20054;-62
2023/05/11 11:31:25;;;;;;;3.83;2.63;;;21.30;57.90;;;;;;4978529;28;20496;-65
2023/05/11 11:33:55;;;;;;;4.05;2.20;;;21.30;58.70;;;;;;4975977;28;20071;-66
2023/05/11 11:36:59;;;;;;;2.97;2.73;;;21.50;59.10;;;;;;4977957;28;20054;-69
2023/05/11 11:39:29;;;;;;;4.22;2.35;;;21.50;57.20;;;;;;4973987;28;20280;-68
2023/05/11 11:42:03;;;;;;;3.97;3.57;;;21.40;57.60;;;;;;4972666;28;20142;-62
2023/05/11 11:44:32;;;;;;;4.35;2.72;;;21.60;57.90;;;;;;4980172;28;20058;-63
2023/05/11 11:47:21;;;;;;;8.05;2.20;;;21.70;57.60;;;;;;4973050;28;20533;-70
2023/05/11 11:49:52;;;;;;;3.58;2.28;;;21.70;56.40;;;;;;4970717;28;20521;-65
2023/05/11 11:52:26;;;;;;;1.90;1.77;;;21.60;58.20;;;;;;4977173;28;20180;-65
2023/05/11 11:54:55;;;;;;;5.25;2.95;;;21.80;59.40;;;;;;4979918;28;20051;-63
2023/05/11 11:57:31;;;;;;;3.95;2.47;;;21.70;57.60;;;;;;4979263;28;20054;-63
2023/05/11 12:00:07;;;;;;;6.22;2.90;;;21.70;57.60;;;;;;4974235;28;20050;-63
2023/05/11 12:02:44;;;;;;;6.30;2.15;;;21.80;57.10;;;;;;4974959;28;20054;-66
2023/05/11 12:05:18;;;;;;;4.60;2.97;;;21.90;59.50;;;;;;4974215;28;20057;-67
2023/05/11 12:07:48;;;;;;;9.95;2.85;;;22.10;58.10;;;;;;4971016;28;20059;-65
2023/05/11 12:10:17;;;;;;;4.27;2.23;;;22.30;58.80;;;;;;4976286;28;20057;-61
2023/05/11 12:12:48;;;;;;;3.15;2.85;;;22.30;57.80;;;;;;4975946;28;20042;-68
2023/05/11 12:15:41;;;;;;;2.53;2.33;;;22.20;56.20;;;;;;4975918;28;20062;-67
2023/05/11 12:18:20;;;;;;;11.73;2.72;;;22.20;58.90;;;;;;4971617;28;20420;-62
2023/05/11 12:20:47;;;;;;;4.75;2.20;;;22.20;57.90;;;;;;4975100;28;20161;-64
2023/05/11 12:23:14;;;;;;;5.13;2.45;;;22.20;57.70;;;;;;4972313;28;20065;-64
2023/05/11 12:25:40;;;;;;;2.85;2.40;;;22.10;56.60;;;;;;4961689;28;20050;-63
2023/05/11 12:28:08;;;;;;;3.13;2.83;;;22.30;56.00;;;;;;4978806;28;20057;-62
2023/05/11 12:30:35;;;;;;;3.65;2.10;;;22.30;56.50;;;;;;4978175;28;20061;-63
2023/05/11 12:33:03;;;;;;;2.15;1.90;;;22.30;58.10;;;;;;4975510;28;20050;-63
2023/05/11 12:35:32;;;;;;;4.50;2.70;;;22.30;57.00;;;;;;4976612;28;20497;-62
2023/05/11 12:38:03;;;;;;;3.53;3.22;;;22.10;56.00;;;;;;4980570;28;20451;-65
2023/05/11 12:40:30;;;;;;;3.70;2.33;;;22.30;57.10;;;;;;4974160;28;20128;-66
2023/05/11 12:42:59;;;;;;;3.40;2.40;;;22.00;56.10;;;;;;4978221;28;20504;-64
2023/05/11 12:45:28;;;;;;;3.50;2.97;;;22.00;56.40;;;;;;4977294;28;20058;-64
2023/05/11 12:47:55;;;;;;;3.30;2.22;;;22.10;57.10;;;;;;4977257;28;20104;-67
2023/05/11 12:50:23;;;;;;;4.70;2.70;;;22.20;55.80;;;;;;4981900;28;20055;-66
2023/05/11 12:52:50;;;;;;;2.42;1.98;;;22.20;57.00;;;;;;4960962;28;20552;-65
2023/05/11 12:55:29;;;;;;;3.80;2.53;;;22.10;58.70;;;;;;4977394;28;20068;-64
2023/05/11 12:58:07;;;;;;;2.65;2.28;;;22.30;56.90;;;;;;4977862;28;20042;-66
2023/05/11 13:00:34;;;;;;;3.05;2.50;;;22.30;55.90;;;;;;4978955;28;20050;-66
2023/05/11 13:03:02;;;;;;;3.85;2.05;;;22.10;55.50;;;;;;4975374;28;20145;-64
2023/05/11 13:05:29;;;;;;;6.40;2.00;;;21.70;55.30;;;;;;4982353;28;20038;-64